KEGI/EGI METAR and TAF weather

Enter ICAO airport designator
Station Type Date Time Source
KEGI METAR 2019/10/23 13:56 UTC NOAA

KEGI 231356Z AUTO 02010KT 10SM CLR 15/05 A3018 RMK AO2 SLP220 T01480048 $


Station Type Date Time Source
KEGI Decoded METAR 2019/10/23 13:56 UTC NOAA

Duke Field / Eglin Auxiliary, FL, United States (KEGI) 30-39N 086-31W
Oct 23, 2019 - 09:56 AM EDT / 2019.10.23 1356 UTC
Wind: from the NNE (020 degrees) at 12 MPH (10 KT):0
Visibility: 10 mile(s):0
Sky conditions: clear
Temperature: 58.6 F (14.8 C)
Dew Point: 40.6 F (4.8 C)
Relative Humidity: 51%
Pressure (altimeter): 30.18 in. Hg (1022 hPa)
ob: KEGI 231356Z AUTO 02010KT 10SM CLR 15/05 A3018 RMK AO2 SLP220 T01480048
cycle: 14

Station Type Date Time Source
KEGI TAF 2019/10/23 13:02 UTC NOAA

TAF
AMD KEGI 231300Z 2313/2415 04006KT 9999 FEW250 WS010/02030KT QNH3015INS
BECMG 2313/2314 03010G15KT 9999 FEW280 QNH3017INS
TEMPO 2314/2317 03012G18KT
BECMG 2317/2318 04010KT 9999 SKC QNH3014INS WND 03006KT AFT 2401
BECMG 2412/2413 07012KT 9999 SCT200 QNH3012INS TX23/2319Z TN11/2313Z

Example: see airport list